createdAt,value
2023-01-19T00:01:43.547Z,90.22
2023-01-19T00:04:11.739Z,90.15
2023-01-19T00:06:39.872Z,90.01
2023-01-19T00:09:08.036Z,89.94
2023-01-19T00:11:36.468Z,90.18
2023-01-19T00:14:04.970Z,89.93
2023-01-19T00:16:33.120Z,90.00
2023-01-19T00:19:01.429Z,89.72
2023-01-19T00:21:29.668Z,89.61
2023-01-19T00:23:58.158Z,89.79
2023-01-19T00:26:26.369Z,89.54
2023-01-19T00:28:54.563Z,89.62
2023-01-19T00:31:23.311Z,89.76
2023-01-19T00:33:52.950Z,89.77
2023-01-19T00:36:21.206Z,89.81
2023-01-19T00:38:49.370Z,89.37
2023-01-19T00:41:18.371Z,89.14
2023-01-19T00:43:46.768Z,89.31
2023-01-19T00:46:14.869Z,89.61
2023-01-19T00:48:43.072Z,89.83
2023-01-19T00:51:11.160Z,89.60
2023-01-19T00:53:39.279Z,89.69
2023-01-19T00:56:07.720Z,89.98
2023-01-19T00:58:35.841Z,90.23
2023-01-19T01:01:05.022Z,90.09
2023-01-19T01:03:33.313Z,89.78
2023-01-19T01:06:01.515Z,90.24
2023-01-19T01:08:31.122Z,90.11
2023-01-19T01:10:59.380Z,90.04
2023-01-19T01:13:28.330Z,90.45
2023-01-19T01:15:58.143Z,90.52
2023-01-19T01:18:26.595Z,90.69
2023-01-19T01:21:01.755Z,90.15
2023-01-19T01:23:30.354Z,90.62
2023-01-19T01:25:58.549Z,90.55
2023-01-19T01:28:26.990Z,90.49
2023-01-19T01:30:56.161Z,90.58
2023-01-19T01:33:41.370Z,90.78
2023-01-19T01:36:12.021Z,90.50
2023-01-19T01:38:41.557Z,90.55
2023-01-19T01:41:10.431Z,90.91
2023-01-19T01:43:53.549Z,91.31
2023-01-19T01:46:22.114Z,90.91
2023-01-19T01:49:00.101Z,90.91
2023-01-19T01:51:51.025Z,91.07
2023-01-19T01:54:31.511Z,90.96
2023-01-19T01:57:04.620Z,90.97
2023-01-19T01:59:39.936Z,90.61
2023-01-19T02:02:31.540Z,90.71
2023-01-19T02:05:05.483Z,90.92
2023-01-19T02:07:56.487Z,90.80
2023-01-19T02:10:43.770Z,90.40
2023-01-19T02:13:22.605Z,90.85
2023-01-19T02:15:54.354Z,90.59
2023-01-19T02:18:24.569Z,90.72
2023-01-19T02:21:23.116Z,90.80
2023-01-19T02:23:59.302Z,91.11
2023-01-19T02:26:33.815Z,90.95
2023-01-19T02:29:08.819Z,91.27
2023-01-19T02:31:39.263Z,91.06
2023-01-19T02:34:11.415Z,90.96
2023-01-19T02:36:49.733Z,91.42
2023-01-19T02:39:22.912Z,91.36
2023-01-19T02:41:55.750Z,91.51
2023-01-19T02:44:25.053Z,91.43
2023-01-19T02:46:57.100Z,91.44
2023-01-19T02:49:28.927Z,91.33
2023-01-19T02:51:58.184Z,91.43
2023-01-19T02:54:50.211Z,91.26
2023-01-19T02:57:55.939Z,91.37
2023-01-19T03:00:36.899Z,91.40
2023-01-19T03:03:14.238Z,91.51
2023-01-19T03:05:56.908Z,92.05
2023-01-19T03:08:53.047Z,92.39
2023-01-19T03:11:23.962Z,91.45
2023-01-19T03:13:56.595Z,91.33
2023-01-19T03:16:41.438Z,92.27
2023-01-19T03:19:12.606Z,91.90
2023-01-19T03:21:45.793Z,92.54
2023-01-19T03:24:17.392Z,91.90
2023-01-19T03:26:50.228Z,92.11
2023-01-19T03:29:21.383Z,92.07
2023-01-19T03:31:52.050Z,92.41
2023-01-19T03:34:24.125Z,91.99
2023-01-19T03:36:55.711Z,92.15
2023-01-19T03:39:27.138Z,92.05
2023-01-19T03:42:00.182Z,92.27
2023-01-19T03:44:29.946Z,92.28
2023-01-19T03:46:59.510Z,92.46
2023-01-19T03:49:31.415Z,92.20
2023-01-19T03:52:00.096Z,91.65
2023-01-19T03:54:28.512Z,92.54
2023-01-19T03:56:56.785Z,92.40
2023-01-19T03:59:25.120Z,92.10
2023-01-19T04:01:53.505Z,92.08
2023-01-19T04:04:21.884Z,92.67
2023-01-19T04:06:50.177Z,92.31
2023-01-19T04:09:20.063Z,92.37
2023-01-19T04:11:48.622Z,92.35
2023-01-19T04:14:17.070Z,91.92
2023-01-19T04:16:45.399Z,91.94
2023-01-19T04:19:13.906Z,92.37
2023-01-19T04:21:42.242Z,92.24
2023-01-19T04:24:10.980Z,92.13
2023-01-19T04:26:39.386Z,91.54
2023-01-19T04:29:07.681Z,92.22
2023-01-19T04:31:37.112Z,91.78
2023-01-19T04:34:05.642Z,91.91
2023-01-19T04:36:34.178Z,91.81
2023-01-19T04:39:02.450Z,91.62
2023-01-19T04:41:31.236Z,92.13
2023-01-19T04:43:59.718Z,91.90
2023-01-19T04:46:27.989Z,91.83
2023-01-19T04:48:56.426Z,91.86
2023-01-19T04:51:24.878Z,91.65
2023-01-19T04:53:53.362Z,91.94
2023-01-19T04:56:21.884Z,91.67
2023-01-19T04:58:50.126Z,91.88
2023-01-19T05:01:18.699Z,91.58
2023-01-19T05:03:47.154Z,90.75
2023-01-19T05:06:15.802Z,91.23
2023-01-19T05:08:45.428Z,91.41
2023-01-19T05:11:14.095Z,92.03
2023-01-19T05:13:42.617Z,91.02
2023-01-19T05:16:11.951Z,92.02
2023-01-19T05:18:40.608Z,90.73
2023-01-19T05:21:08.926Z,91.64
2023-01-19T05:23:37.479Z,91.94
2023-01-19T05:26:05.787Z,91.36
2023-01-19T05:28:34.654Z,91.07
2023-01-19T05:31:03.136Z,90.54
2023-01-19T05:33:31.627Z,91.05
2023-01-19T05:35:59.852Z,90.71
2023-01-19T05:38:35.434Z,91.03
2023-01-19T05:41:04.336Z,91.14
2023-01-19T05:43:32.797Z,91.04
2023-01-19T05:46:01.439Z,90.80
2023-01-19T05:48:29.830Z,91.23
2023-01-19T05:51:01.810Z,91.24
2023-01-19T05:53:30.261Z,91.06
2023-01-19T05:56:03.917Z,91.24
2023-01-19T05:58:34.591Z,90.96
2023-01-19T06:01:08.595Z,91.35
2023-01-19T06:03:38.904Z,91.07
2023-01-19T06:06:07.669Z,91.52
2023-01-19T06:08:36.703Z,91.63
2023-01-19T06:11:06.371Z,91.43
2023-01-19T06:13:35.635Z,91.57
2023-01-19T06:16:03.980Z,91.89
2023-01-19T06:18:32.551Z,91.47
2023-01-19T06:21:08.727Z,91.31
2023-01-19T06:23:37.345Z,92.36
2023-01-19T06:26:06.561Z,91.57
2023-01-19T06:28:35.011Z,91.67
2023-01-19T06:31:04.067Z,91.97
2023-01-19T06:33:32.409Z,91.75
2023-01-19T06:36:01.159Z,91.89
2023-01-19T06:38:29.691Z,91.96
2023-01-19T06:41:03.396Z,92.03
2023-01-19T06:43:32.387Z,92.36
2023-01-19T06:46:01.015Z,92.16
2023-01-19T06:48:29.403Z,92.53
2023-01-19T06:50:59.506Z,92.28
2023-01-19T06:53:30.274Z,92.40
2023-01-19T06:56:01.184Z,92.63
2023-01-19T06:58:31.231Z,92.54
2023-01-19T07:01:04.064Z,92.89
2023-01-19T07:03:33.688Z,92.76
2023-01-19T07:06:06.991Z,92.92
2023-01-19T07:08:35.823Z,93.37
2023-01-19T07:11:25.537Z,93.28
2023-01-19T07:13:58.322Z,93.50
2023-01-19T07:16:26.867Z,93.52
2023-01-19T07:18:55.481Z,93.42
2023-01-19T07:21:23.992Z,93.50
2023-01-19T07:23:53.166Z,93.49
2023-01-19T07:26:22.257Z,93.26
2023-01-19T07:28:51.856Z,93.86
2023-01-19T07:31:20.682Z,93.76
2023-01-19T07:33:49.159Z,94.22
2023-01-19T07:36:17.868Z,93.96
2023-01-19T07:38:46.644Z,93.74
2023-01-19T07:41:14.983Z,93.72
2023-01-19T07:43:43.266Z,94.22
2023-01-19T07:46:11.773Z,93.79
2023-01-19T07:48:40.187Z,93.84
2023-01-19T07:51:13.077Z,93.55
2023-01-19T07:53:42.171Z,94.61
2023-01-19T07:56:10.881Z,94.12
2023-01-19T07:58:40.087Z,94.43
2023-01-19T08:01:10.390Z,94.01
2023-01-19T08:03:39.657Z,94.00
2023-01-19T08:06:08.130Z,93.85
2023-01-19T08:08:36.853Z,94.29
2023-01-19T08:11:05.475Z,94.46
2023-01-19T08:13:33.941Z,94.14
2023-01-19T08:16:02.438Z,94.12
2023-01-19T08:18:30.951Z,93.51
2023-01-19T08:21:00.421Z,94.10
2023-01-19T08:23:28.765Z,93.46
2023-01-19T08:25:57.464Z,94.03
2023-01-19T08:28:26.318Z,93.79
2023-01-19T08:30:54.801Z,93.91
2023-01-19T08:33:25.373Z,93.87
2023-01-19T08:35:54.268Z,93.21
2023-01-19T08:38:27.256Z,93.40
2023-01-19T08:40:55.998Z,93.25
2023-01-19T08:43:24.786Z,93.02
2023-01-19T08:45:53.463Z,93.33
2023-01-19T08:48:23.620Z,92.84
2023-01-19T08:50:52.922Z,92.64
2023-01-19T08:53:23.806Z,92.99
2023-01-19T08:56:03.654Z,92.57
2023-01-19T08:58:32.298Z,92.57
2023-01-19T09:01:04.087Z,92.85
2023-01-19T09:03:33.147Z,92.85
2023-01-19T09:06:02.938Z,92.76
2023-01-19T09:08:31.211Z,92.22
2023-01-19T09:10:59.707Z,92.26
2023-01-19T09:13:28.227Z,91.90
2023-01-19T09:15:56.605Z,92.13
2023-01-19T09:18:25.362Z,92.53
2023-01-19T09:20:57.322Z,91.99
2023-01-19T09:23:26.167Z,91.73
2023-01-19T09:26:00.290Z,92.20
2023-01-19T09:28:29.653Z,92.02
2023-01-19T09:30:58.141Z,92.02
2023-01-19T09:33:26.452Z,91.99
2023-01-19T09:35:54.766Z,91.80
2023-01-19T09:38:24.070Z,91.73
2023-01-19T09:40:55.396Z,91.55
2023-01-19T09:43:43.183Z,91.90
2023-01-19T09:46:16.964Z,91.88
2023-01-19T09:48:47.952Z,91.71
2023-01-19T09:51:22.013Z,91.49
2023-01-19T09:53:59.311Z,91.71
2023-01-19T09:56:29.593Z,92.06
2023-01-19T09:58:58.520Z,92.23
2023-01-19T10:01:39.263Z,92.03
2023-01-19T10:04:19.803Z,91.91
2023-01-19T10:06:48.786Z,92.02
2023-01-19T10:09:53.003Z,91.94
2023-01-19T10:12:29.884Z,91.54
2023-01-19T10:15:14.700Z,91.81
2023-01-19T10:17:42.771Z,91.82
2023-01-19T10:20:23.063Z,91.87
2023-01-19T10:22:51.326Z,91.67
2023-01-19T10:25:25.248Z,91.50
2023-01-19T10:27:54.436Z,91.33
2023-01-19T10:30:26.420Z,91.13
2023-01-19T10:32:55.157Z,91.25
2023-01-19T10:35:25.325Z,91.13
2023-01-19T10:38:00.758Z,90.84
2023-01-19T10:40:34.893Z,90.90
2023-01-19T10:43:32.495Z,90.81
2023-01-19T10:46:14.459Z,90.41
2023-01-19T10:48:43.502Z,90.34
2023-01-19T10:51:12.177Z,90.28
2023-01-19T10:53:43.562Z,90.28
2023-01-19T10:56:21.585Z,90.23
2023-01-19T10:58:50.001Z,90.03
2023-01-19T11:01:25.099Z,90.15
2023-01-19T11:03:54.972Z,89.98
2023-01-19T11:06:24.875Z,90.30
2023-01-19T11:08:55.703Z,90.13
2023-01-19T11:11:24.828Z,90.06
2023-01-19T11:14:09.271Z,90.04
2023-01-19T11:16:40.125Z,89.75
2023-01-19T11:19:19.273Z,89.84
2023-01-19T11:21:47.803Z,89.73
2023-01-19T11:24:16.899Z,89.79
2023-01-19T11:27:02.993Z,89.70
2023-01-19T11:29:32.075Z,89.51
2023-01-19T11:32:11.937Z,89.64
2023-01-19T11:34:40.272Z,89.60
2023-01-19T11:37:14.723Z,89.27
2023-01-19T11:39:55.120Z,89.29
2023-01-19T11:42:24.830Z,89.47
2023-01-19T11:45:07.728Z,89.54
2023-01-19T11:47:47.117Z,89.62
2023-01-19T11:50:30.272Z,89.28
2023-01-19T11:53:18.743Z,89.54
2023-01-19T11:55:55.051Z,89.16
2023-01-19T11:58:24.695Z,89.18
2023-01-19T12:01:21.264Z,89.50
2023-01-19T12:03:59.973Z,89.52
2023-01-19T12:06:33.457Z,89.12
2023-01-19T12:09:13.323Z,88.77
2023-01-19T12:11:49.291Z,88.55
2023-01-19T12:14:23.016Z,88.48
2023-01-19T12:16:55.326Z,88.43
2023-01-19T12:19:35.955Z,88.58
2023-01-19T12:22:05.343Z,88.62
2023-01-19T12:24:44.179Z,88.39
2023-01-19T12:27:26.936Z,88.69
2023-01-19T12:29:55.512Z,88.46
2023-01-19T12:32:36.907Z,88.28
2023-01-19T12:35:05.504Z,88.39
2023-01-19T12:37:40.838Z,88.17
2023-01-19T12:40:28.101Z,88.33
2023-01-19T12:43:00.192Z,88.02
2023-01-19T12:45:32.347Z,88.23
2023-01-19T12:48:02.461Z,88.54
2023-01-19T12:50:37.981Z,88.65
2023-01-19T12:53:18.887Z,88.67
2023-01-19T12:55:59.949Z,88.85
2023-01-19T12:58:28.629Z,88.58
2023-01-19T13:01:21.922Z,88.31
2023-01-19T13:04:09.600Z,88.23
2023-01-19T13:06:49.970Z,88.28
2023-01-19T13:09:32.123Z,88.84
2023-01-19T13:12:22.735Z,88.72
2023-01-19T13:15:11.295Z,88.68
2023-01-19T13:17:53.653Z,88.83
2023-01-19T13:20:43.576Z,88.91
2023-01-19T13:23:25.018Z,89.45
2023-01-19T13:26:05.612Z,89.55
2023-01-19T13:28:43.506Z,89.34
2023-01-19T13:31:13.790Z,89.22
2023-01-19T13:33:48.490Z,89.11
2023-01-19T13:36:34.732Z,89.48
2023-01-19T13:39:12.543Z,89.30
2023-01-19T13:41:42.426Z,89.41
2023-01-19T13:44:28.627Z,89.29
2023-01-19T13:46:59.489Z,88.84
2023-01-19T13:49:34.017Z,89.03
2023-01-19T13:52:23.117Z,88.85
2023-01-19T13:55:03.898Z,89.18
2023-01-19T13:57:45.897Z,89.18
2023-01-19T14:00:33.597Z,89.43
2023-01-19T14:03:18.952Z,89.23
2023-01-19T14:05:52.046Z,89.36
2023-01-19T14:08:22.062Z,89.32
2023-01-19T14:11:02.337Z,89.27
2023-01-19T14:13:31.031Z,89.30
2023-01-19T14:16:05.547Z,89.22
2023-01-19T14:18:35.455Z,89.39
2023-01-19T14:21:15.149Z,89.61
2023-01-19T14:23:49.310Z,89.67
2023-01-19T14:26:42.812Z,89.62
2023-01-19T14:29:17.777Z,89.80
2023-01-19T14:31:53.304Z,89.90
2023-01-19T14:34:34.106Z,90.24
2023-01-19T14:37:05.238Z,90.23
2023-01-19T14:39:36.129Z,89.89
2023-01-19T14:42:06.870Z,90.04
2023-01-19T14:44:39.948Z,90.06
2023-01-19T14:47:25.898Z,90.24
2023-01-19T14:49:57.650Z,90.29
2023-01-19T14:52:33.670Z,90.14
2023-01-19T14:55:06.987Z,90.17
2023-01-19T14:57:37.067Z,90.29
2023-01-19T15:00:17.357Z,90.54
2023-01-19T15:02:47.244Z,90.30
2023-01-19T15:05:16.351Z,90.50
2023-01-19T15:07:47.187Z,90.51
2023-01-19T15:10:21.676Z,90.43
2023-01-19T15:12:53.541Z,90.36
2023-01-19T15:15:29.045Z,90.76
2023-01-19T15:17:59.138Z,90.52
2023-01-19T15:20:28.187Z,90.79
2023-01-19T15:22:56.522Z,90.78
2023-01-19T15:25:27.989Z,90.58
2023-01-19T15:27:59.824Z,90.92
2023-01-19T15:30:33.872Z,90.85
2023-01-19T15:33:02.859Z,90.93
2023-01-19T15:35:31.805Z,90.93
2023-01-19T15:38:00.173Z,90.81
2023-01-19T15:40:28.441Z,90.87
2023-01-19T15:42:57.125Z,91.13
2023-01-19T15:45:37.497Z,91.24
2023-01-19T15:48:08.556Z,91.33
2023-01-19T15:50:39.285Z,91.49
2023-01-19T15:53:12.048Z,91.53
2023-01-19T15:55:40.553Z,91.38
2023-01-19T15:58:13.900Z,91.68
2023-01-19T16:00:42.949Z,91.50
2023-01-19T16:03:11.437Z,91.75
2023-01-19T16:05:43.720Z,91.46
2023-01-19T16:08:12.371Z,91.60
2023-01-19T16:10:42.192Z,91.77
2023-01-19T16:13:12.209Z,91.55
2023-01-19T16:15:42.756Z,91.74
2023-01-19T16:18:11.467Z,92.05
2023-01-19T16:20:40.193Z,91.99
2023-01-19T16:23:16.118Z,91.99
2023-01-19T16:25:45.108Z,92.11
2023-01-19T16:28:13.510Z,91.83
2023-01-19T16:30:42.159Z,92.09
2023-01-19T16:33:11.801Z,92.10
2023-01-19T16:35:40.127Z,92.06
2023-01-19T16:38:09.563Z,92.10
2023-01-19T16:40:38.542Z,92.04
2023-01-19T16:43:07.121Z,92.19
2023-01-19T16:45:38.533Z,92.34
2023-01-19T16:48:09.665Z,92.36
2023-01-19T16:50:38.257Z,92.56
2023-01-19T16:53:07.133Z,92.46
2023-01-19T16:55:40.760Z,92.48
2023-01-19T16:58:09.076Z,92.51
2023-01-19T17:00:37.447Z,92.25
2023-01-19T17:03:05.755Z,92.29
2023-01-19T17:05:34.535Z,92.27
2023-01-19T17:08:03.317Z,92.36
2023-01-19T17:10:35.531Z,92.38
2023-01-19T17:13:04.192Z,92.41
2023-01-19T17:15:32.531Z,92.47
2023-01-19T17:18:01.382Z,92.40
2023-01-19T17:20:29.802Z,92.37
2023-01-19T17:22:58.141Z,92.58
2023-01-19T17:25:26.592Z,92.52
2023-01-19T17:27:56.124Z,92.56
2023-01-19T17:30:24.981Z,92.57
2023-01-19T17:32:53.419Z,92.82
2023-01-19T17:35:21.704Z,92.70
2023-01-19T17:37:54.710Z,92.71
2023-01-19T17:40:26.193Z,92.85
2023-01-19T17:42:54.452Z,93.21
2023-01-19T17:48:07.808Z,92.91
2023-01-19T17:50:35.975Z,92.84
2023-01-19T17:53:04.933Z,93.01
2023-01-19T17:55:34.706Z,93.04
2023-01-19T17:58:03.608Z,92.91
2023-01-19T18:00:32.147Z,92.87
2023-01-19T18:03:00.595Z,92.78
2023-01-19T18:05:29.085Z,93.12
2023-01-19T18:07:57.468Z,92.99
2023-01-19T18:10:25.824Z,92.95
2023-01-19T18:12:54.468Z,93.02
2023-01-19T18:15:23.302Z,93.10
2023-01-19T18:17:51.723Z,93.15
2023-01-19T18:20:20.113Z,93.18
2023-01-19T18:22:49.399Z,92.97
2023-01-19T18:25:18.066Z,93.16
2023-01-19T18:27:46.498Z,93.20
2023-01-19T18:30:16.710Z,93.31
2023-01-19T18:32:46.964Z,93.46
2023-01-19T18:35:15.229Z,93.32
2023-01-19T18:37:43.823Z,93.29
2023-01-19T18:40:12.857Z,93.33
2023-01-19T18:42:41.828Z,93.17
2023-01-19T18:45:10.632Z,93.25
2023-01-19T18:47:38.898Z,93.26
2023-01-19T18:50:08.017Z,92.97
2023-01-19T18:52:36.540Z,93.34
2023-01-19T18:55:05.103Z,93.32
2023-01-19T18:57:35.130Z,93.48
2023-01-19T19:00:04.502Z,93.47
2023-01-19T19:02:34.269Z,93.44
2023-01-19T19:05:03.271Z,93.32
2023-01-19T19:07:31.713Z,93.26
2023-01-19T19:10:00.161Z,93.52
2023-01-19T19:12:28.636Z,93.45
2023-01-19T19:14:57.324Z,93.41
2023-01-19T19:17:25.982Z,93.42
2023-01-19T19:19:54.933Z,93.43
2023-01-19T19:22:25.576Z,93.34
2023-01-19T19:24:54.129Z,93.36
2023-01-19T19:27:22.492Z,93.57
2023-01-19T19:29:51.279Z,93.56
2023-01-19T19:32:21.266Z,93.68
2023-01-19T19:34:52.839Z,93.40
2023-01-19T19:37:21.288Z,93.16
2023-01-19T19:39:50.077Z,93.48
2023-01-19T19:42:18.621Z,93.27
2023-01-19T19:44:47.591Z,93.39
2023-01-19T19:47:16.322Z,93.33
2023-01-19T19:49:45.310Z,93.17
2023-01-19T19:52:13.651Z,93.57
2023-01-19T19:54:42.460Z,93.19
2023-01-19T19:57:10.889Z,93.35
2023-01-19T19:59:39.394Z,93.30
2023-01-19T20:02:09.957Z,93.50
2023-01-19T20:04:39.328Z,93.36
2023-01-19T20:07:07.951Z,93.17
2023-01-19T20:09:36.842Z,93.43
2023-01-19T20:12:05.370Z,93.50
2023-01-19T20:14:34.078Z,93.69
2023-01-19T20:17:03.398Z,93.62
2023-01-19T20:19:32.623Z,93.50
2023-01-19T20:22:01.361Z,93.46
2023-01-19T20:24:29.680Z,93.48
2023-01-19T20:26:58.602Z,93.56
2023-01-19T20:29:27.073Z,93.43
2023-01-19T20:31:56.649Z,93.44
2023-01-19T20:34:30.417Z,93.50
2023-01-19T20:37:01.882Z,93.61
2023-01-19T20:39:33.547Z,93.63
2023-01-19T20:42:02.322Z,93.29
2023-01-19T20:44:31.552Z,93.37
2023-01-19T20:47:00.124Z,93.39
2023-01-19T20:49:28.713Z,93.28
2023-01-19T20:51:57.198Z,93.44
2023-01-19T20:54:28.424Z,93.45
2023-01-19T20:56:57.702Z,93.29
2023-01-19T20:59:26.411Z,93.41
2023-01-19T21:01:55.316Z,93.69
2023-01-19T21:04:24.474Z,93.48
2023-01-19T21:06:52.880Z,93.56
2023-01-19T21:09:23.064Z,93.42
2023-01-19T21:11:51.467Z,93.40
2023-01-19T21:14:20.089Z,93.34
2023-01-19T21:16:48.497Z,93.46
2023-01-19T21:19:17.366Z,93.52
2023-01-19T21:21:45.736Z,93.51
2023-01-19T21:24:14.475Z,93.63
2023-01-19T21:26:43.045Z,93.72
2023-01-19T21:29:13.519Z,93.54
2023-01-19T21:31:42.409Z,93.52
2023-01-19T21:34:11.034Z,93.56
2023-01-19T21:36:39.480Z,93.53
2023-01-19T21:39:09.246Z,94.04
2023-01-19T21:41:39.935Z,93.68
2023-01-19T21:44:08.425Z,93.94
2023-01-19T21:46:37.187Z,93.97
2023-01-19T21:49:08.221Z,94.04
2023-01-19T21:51:37.291Z,93.90
2023-01-19T21:54:07.180Z,94.03
2023-01-19T21:56:38.152Z,94.20
2023-01-19T21:59:06.638Z,94.18
2023-01-19T22:01:35.478Z,94.21
2023-01-19T22:04:04.591Z,94.04
2023-01-19T22:06:33.529Z,93.97
2023-01-19T22:09:02.081Z,94.04
2023-01-19T22:11:30.554Z,93.91
2023-01-19T22:14:01.704Z,93.93
2023-01-19T22:16:30.811Z,94.09
2023-01-19T22:19:02.134Z,94.26
2023-01-19T22:21:34.115Z,94.13
2023-01-19T22:24:04.132Z,94.21
2023-01-19T22:26:34.482Z,94.10
2023-01-19T22:29:05.165Z,94.14
2023-01-19T22:31:33.775Z,94.21
2023-01-19T22:34:02.585Z,93.90
2023-01-19T22:36:34.142Z,94.05
2023-01-19T22:39:05.864Z,94.05
2023-01-19T22:41:35.980Z,94.16
2023-01-19T22:44:10.052Z,94.23
2023-01-19T22:46:39.015Z,94.04
2023-01-19T22:49:10.412Z,94.28
2023-01-19T22:51:39.199Z,94.17
2023-01-19T22:54:07.924Z,94.11
2023-01-19T22:56:39.021Z,94.12
2023-01-19T22:59:07.974Z,94.12
2023-01-19T23:01:43.330Z,94.12
2023-01-19T23:04:14.813Z,94.32
2023-01-19T23:06:43.973Z,94.32
2023-01-19T23:09:14.855Z,94.12
2023-01-19T23:11:45.852Z,94.12
2023-01-19T23:14:16.441Z,94.26
2023-01-19T23:16:47.338Z,94.05
2023-01-19T23:19:17.431Z,93.74
2023-01-19T23:21:46.662Z,94.07
2023-01-19T23:24:15.010Z,94.07
2023-01-19T23:26:43.258Z,94.29
2023-01-19T23:29:14.337Z,94.48
2023-01-19T23:31:45.997Z,94.14
2023-01-19T23:34:16.068Z,94.04
2023-01-19T23:36:44.917Z,93.99
2023-01-19T23:39:17.322Z,93.97
2023-01-19T23:41:46.966Z,94.24
2023-01-19T23:44:17.587Z,94.01
2023-01-19T23:46:46.589Z,93.86
2023-01-19T23:49:18.373Z,94.25
2023-01-19T23:51:46.767Z,94.27
2023-01-19T23:54:15.053Z,93.87
2023-01-19T23:56:43.748Z,94.15
2023-01-19T23:59:14.616Z,94.19
